Time;durP1;ratioP1;P1;durP2;ratioP2;P2;SDS_P1;SDS_P2;PMS_P1;PMS_P2;Temp;Humidity;BMP_temperature;BMP_pressure;BME280_temperature;BME280_humidity;BME280_pressure;Samples;Min_cycle;Max_cycle;Signal;HPM_P1;HPM_P2
2023/10/01 00:00:27;;;;;;;16.67;8.00;;;10.80;99.90;;;;;;5010398;28;20493;-68
2023/10/01 00:02:56;;;;;;;17.13;8.67;;;10.80;99.90;;;;;;5010723;28;20460;-67
2023/10/01 00:05:26;;;;;;;18.10;8.90;;;10.80;99.90;;;;;;5010804;28;20454;-68
2023/10/01 00:07:54;;;;;;;21.63;9.07;;;10.80;99.90;;;;;;5011392;28;20550;-68
2023/10/01 00:10:25;;;;;;;20.47;9.97;;;10.70;99.90;;;;;;5010721;28;20553;-67
2023/10/01 00:12:54;;;;;;;19.03;9.07;;;10.70;99.90;;;;;;5010674;28;20547;-68
2023/10/01 00:15:24;;;;;;;19.10;9.60;;;10.80;99.90;;;;;;5011036;28;20461;-67
2023/10/01 00:17:53;;;;;;;18.70;8.50;;;10.80;99.90;;;;;;5011092;28;20463;-68
2023/10/01 00:20:23;;;;;;;18.27;8.60;;;10.80;99.90;;;;;;5009589;28;20497;-69
2023/10/01 00:22:57;;;;;;;17.40;8.80;;;10.70;99.90;;;;;;5010888;28;20556;-68
2023/10/01 00:25:27;;;;;;;19.40;8.77;;;10.60;99.90;;;;;;5007113;28;20508;-68
2023/10/01 00:27:58;;;;;;;19.00;8.77;;;10.60;99.90;;;;;;5009622;28;20485;-68
2023/10/01 00:30:31;;;;;;;21.70;9.10;;;10.70;99.90;;;;;;5011101;28;20524;-67
2023/10/01 00:33:05;;;;;;;23.10;10.13;;;10.70;99.90;;;;;;5010446;28;20481;-69
2023/10/01 00:35:33;;;;;;;23.00;10.13;;;10.70;99.90;;;;;;5010415;28;20503;-69
2023/10/01 00:38:03;;;;;;;18.80;8.97;;;10.70;99.90;;;;;;5009281;28;20515;-68
2023/10/01 00:40:31;;;;;;;19.30;8.53;;;10.60;99.90;;;;;;5009410;28;20539;-68
2023/10/01 00:42:58;;;;;;;21.17;9.03;;;10.60;99.90;;;;;;5010257;28;20488;-69
2023/10/01 00:45:27;;;;;;;18.60;9.00;;;10.50;99.90;;;;;;5008622;28;20464;-68
2023/10/01 00:47:56;;;;;;;18.60;9.70;;;10.50;99.90;;;;;;5009815;28;20467;-67
2023/10/01 00:50:24;;;;;;;20.40;9.30;;;10.50;99.90;;;;;;5009572;28;20466;-69
2023/10/01 00:52:56;;;;;;;20.50;10.30;;;10.50;99.90;;;;;;5010055;28;20462;-68
2023/10/01 00:55:28;;;;;;;17.93;9.50;;;10.40;99.90;;;;;;5010189;28;20529;-68
2023/10/01 00:57:58;;;;;;;17.77;7.97;;;10.30;99.90;;;;;;5009163;28;20968;-68
2023/10/01 01:00:27;;;;;;;19.80;8.70;;;10.30;99.90;;;;;;5010743;28;20485;-69
2023/10/01 01:03:00;;;;;;;18.83;9.20;;;10.20;99.90;;;;;;5009077;28;20969;-68
2023/10/01 01:05:34;;;;;;;18.50;9.20;;;10.40;99.90;;;;;;5008725;28;20457;-68
2023/10/01 01:08:09;;;;;;;20.13;9.40;;;10.50;99.90;;;;;;5008921;28;20463;-68
2023/10/01 01:10:43;;;;;;;20.00;9.73;;;10.40;99.90;;;;;;5009821;28;20996;-68
2023/10/01 01:13:16;;;;;;;19.37;9.10;;;10.30;99.90;;;;;;5009461;28;20525;-69
2023/10/01 01:15:47;;;;;;;17.67;9.70;;;10.30;99.90;;;;;;5009288;28;21027;-68
2023/10/01 01:18:20;;;;;;;18.53;9.10;;;10.30;99.90;;;;;;5008318;28;20458;-67
2023/10/01 01:20:49;;;;;;;19.50;9.40;;;10.30;99.90;;;;;;5009433;28;20489;-68
2023/10/01 01:23:23;;;;;;;20.50;10.60;;;10.30;99.90;;;;;;5009091;28;20544;-68
2023/10/01 01:25:52;;;;;;;17.77;10.13;;;10.20;99.90;;;;;;5008761;28;20480;-69
2023/10/01 01:28:24;;;;;;;17.80;8.60;;;10.30;99.90;;;;;;5009051;28;20546;-68
2023/10/01 01:30:52;;;;;;;16.97;8.63;;;10.30;99.90;;;;;;5009394;28;20546;-68
2023/10/01 01:33:26;;;;;;;22.83;10.57;;;10.30;99.90;;;;;;5007187;28;20450;-68
2023/10/01 01:35:54;;;;;;;19.20;9.83;;;10.30;99.90;;;;;;5008972;28;20481;-69
2023/10/01 01:38:24;;;;;;;19.47;10.20;;;10.30;99.90;;;;;;5005686;28;20454;-69
2023/10/01 01:40:52;;;;;;;16.87;9.33;;;10.20;99.90;;;;;;5008438;28;21079;-68
2023/10/01 01:43:30;;;;;;;20.47;9.53;;;10.20;99.90;;;;;;5006274;28;20456;-68
2023/10/01 01:46:00;;;;;;;20.97;9.13;;;10.20;99.90;;;;;;5008794;28;20985;-68
2023/10/01 01:48:31;;;;;;;20.93;9.60;;;10.10;99.90;;;;;;5008237;28;20450;-68
2023/10/01 01:51:00;;;;;;;20.53;10.37;;;10.10;99.90;;;;;;5007976;28;20472;-66
2023/10/01 01:53:34;;;;;;;17.77;9.60;;;10.00;99.90;;;;;;5009291;28;20960;-68
2023/10/01 01:56:09;;;;;;;20.63;9.30;;;10.00;99.90;;;;;;5008467;28;20450;-68
2023/10/01 01:58:39;;;;;;;20.50;8.80;;;10.10;99.90;;;;;;5008057;28;20507;-67
2023/10/01 02:01:23;;;;;;;18.20;8.60;;;10.20;99.90;;;;;;5007976;28;20548;-68
2023/10/01 02:03:53;;;;;;;15.87;9.37;;;10.30;99.90;;;;;;5005021;28;20462;-68
2023/10/01 02:06:27;;;;;;;18.80;8.60;;;10.30;99.90;;;;;;5008487;28;20462;-69
2023/10/01 02:08:58;;;;;;;21.07;8.03;;;10.30;99.90;;;;;;5007562;28;21003;-68
2023/10/01 02:11:32;;;;;;;17.43;8.50;;;10.20;99.90;;;;;;5008535;28;20477;-69
2023/10/01 02:14:03;;;;;;;20.90;9.50;;;10.10;99.90;;;;;;5006394;28;20470;-68
2023/10/01 02:16:37;;;;;;;15.47;8.63;;;10.10;99.90;;;;;;5007417;28;20778;-68
2023/10/01 02:19:17;;;;;;;20.27;9.03;;;10.00;99.90;;;;;;5006202;28;20465;-68
2023/10/01 02:21:49;;;;;;;19.83;8.70;;;9.90;99.90;;;;;;5007247;28;20506;-68
2023/10/01 02:24:22;;;;;;;17.67;8.40;;;9.90;99.90;;;;;;5007662;28;20519;-68
2023/10/01 02:26:54;;;;;;;17.17;8.30;;;10.10;99.90;;;;;;5008680;28;20457;-67
2023/10/01 02:29:24;;;;;;;16.97;7.87;;;10.10;99.90;;;;;;5007734;28;20456;-68
2023/10/01 02:31:56;;;;;;;18.37;8.30;;;10.20;99.90;;;;;;5008943;28;20547;-68
2023/10/01 02:34:26;;;;;;;17.80;7.70;;;10.30;99.90;;;;;;5008003;28;20936;-68
2023/10/01 02:36:55;;;;;;;17.73;7.63;;;10.30;99.90;;;;;;5008062;28;20457;-68
2023/10/01 02:39:28;;;;;;;17.60;8.03;;;10.10;99.90;;;;;;5008494;28;20535;-68
2023/10/01 02:42:20;;;;;;;20.90;7.70;;;10.00;99.90;;;;;;5007455;28;20489;-68
2023/10/01 02:44:53;;;;;;;18.77;7.73;;;10.10;99.90;;;;;;5007748;28;20457;-68
2023/10/01 02:47:23;;;;;;;16.13;7.40;;;10.10;99.90;;;;;;5006855;28;20539;-68
2023/10/01 02:49:53;;;;;;;16.47;7.40;;;10.10;99.90;;;;;;5006624;28;20465;-68
2023/10/01 02:52:22;;;;;;;18.50;8.47;;;10.10;99.90;;;;;;5007040;28;20477;-68
2023/10/01 02:54:54;;;;;;;16.87;8.90;;;10.10;99.90;;;;;;5007751;28;20930;-68
2023/10/01 02:57:26;;;;;;;16.37;7.67;;;10.00;99.90;;;;;;5004411;28;20449;-68
2023/10/01 03:00:20;;;;;;;17.87;8.27;;;9.90;99.90;;;;;;5006889;28;20453;-68
2023/10/01 03:02:53;;;;;;;18.10;8.33;;;9.90;99.90;;;;;;5003374;28;20481;-68
2023/10/01 03:05:28;;;;;;;16.67;8.60;;;9.80;99.90;;;;;;5008293;28;20496;-68
2023/10/01 03:07:57;;;;;;;16.47;7.97;;;9.70;99.90;;;;;;5007369;28;20507;-68
2023/10/01 03:10:29;;;;;;;20.20;9.20;;;9.60;99.90;;;;;;5007874;28;20999;-67
2023/10/01 03:12:58;;;;;;;17.97;8.60;;;9.60;99.90;;;;;;5007779;28;20450;-68
2023/10/01 03:15:29;;;;;;;19.00;9.57;;;9.60;99.90;;;;;;5007195;28;20454;-68
2023/10/01 03:17:58;;;;;;;19.00;9.20;;;9.60;99.90;;;;;;5007319;28;20975;-68
2023/10/01 03:23:25;;;;;;;18.63;8.73;;;9.60;99.90;;;;;;5007033;28;20531;-68
2023/10/01 03:25:59;;;;;;;18.00;9.83;;;9.60;99.90;;;;;;5007971;28;20556;-68
2023/10/01 03:28:28;;;;;;;19.00;8.73;;;9.70;99.90;;;;;;5011011;28;20461;-68
2023/10/01 03:31:06;;;;;;;15.87;9.40;;;9.80;99.90;;;;;;5010766;28;20527;-69
2023/10/01 03:33:37;;;;;;;18.73;10.20;;;9.80;99.90;;;;;;5011903;28;20847;-67
2023/10/01 03:36:09;;;;;;;18.03;8.97;;;9.90;99.90;;;;;;5011004;28;20471;-68
2023/10/01 03:38:38;;;;;;;20.43;9.27;;;9.90;99.90;;;;;;5011246;28;20484;-68
2023/10/01 03:41:16;;;;;;;19.83;8.37;;;9.90;99.90;;;;;;5011324;28;20491;-68
2023/10/01 03:43:44;;;;;;;15.67;8.10;;;9.70;99.90;;;;;;5011650;28;20452;-68
2023/10/01 03:46:19;;;;;;;21.53;8.83;;;9.60;99.90;;;;;;5009936;28;20457;-68
2023/10/01 03:49:00;;;;;;;18.47;8.30;;;9.50;99.90;;;;;;5011250;28;20540;-68
2023/10/01 03:51:52;;;;;;;17.90;8.33;;;9.60;99.90;;;;;;5009202;28;20483;-68
2023/10/01 03:54:26;;;;;;;17.70;8.23;;;9.70;99.90;;;;;;5011026;28;20888;-68
2023/10/01 03:56:58;;;;;;;15.53;7.07;;;9.70;99.90;;;;;;5010484;28;21142;-68
2023/10/01 03:59:27;;;;;;;17.93;8.23;;;9.80;99.90;;;;;;5010960;28;20484;-68
2023/10/01 04:02:02;;;;;;;19.60;9.47;;;9.70;99.90;;;;;;5010558;28;20571;-69
2023/10/01 04:04:56;;;;;;;20.53;8.50;;;9.60;99.90;;;;;;5010273;28;20468;-69
2023/10/01 04:07:22;;;;;;;17.90;8.20;;;9.60;99.90;;;;;;5009359;28;20535;-68
2023/10/01 04:09:51;;;;;;;21.83;8.47;;;9.50;99.90;;;;;;5010848;28;20512;-70
2023/10/01 04:12:27;;;;;;;22.80;8.93;;;9.60;99.90;;;;;;5010304;28;20496;-69
2023/10/01 04:15:01;;;;;;;16.10;7.83;;;9.50;99.90;;;;;;5011432;28;20522;-68
2023/10/01 04:17:35;;;;;;;17.40;8.77;;;9.60;99.90;;;;;;5010122;28;20457;-68
2023/10/01 04:20:12;;;;;;;15.90;8.40;;;9.50;99.90;;;;;;5010626;28;20995;-67
2023/10/01 04:22:41;;;;;;;16.67;8.13;;;9.50;99.90;;;;;;5010592;28;20480;-68
2023/10/01 04:25:11;;;;;;;19.63;8.80;;;9.60;99.90;;;;;;5010182;28;20453;-67
2023/10/01 04:27:45;;;;;;;21.10;9.20;;;9.60;99.90;;;;;;5009556;28;20891;-68
2023/10/01 04:30:14;;;;;;;18.33;9.13;;;9.50;99.90;;;;;;5010557;28;20511;-68
2023/10/01 04:32:42;;;;;;;17.93;9.03;;;9.50;99.90;;;;;;5010852;28;20446;-68
2023/10/01 04:35:14;;;;;;;19.77;8.50;;;9.50;99.90;;;;;;5009815;28;20468;-68
2023/10/01 04:37:48;;;;;;;21.07;9.17;;;9.50;99.90;;;;;;5008318;28;20461;-68
2023/10/01 04:40:39;;;;;;;22.43;11.70;;;9.60;99.90;;;;;;5009770;28;20462;-68
2023/10/01 04:43:10;;;;;;;22.63;9.87;;;9.60;99.90;;;;;;5010423;28;20555;-68
2023/10/01 04:45:40;;;;;;;17.30;8.93;;;9.60;99.90;;;;;;5004041;28;20516;-68
2023/10/01 04:48:17;;;;;;;18.00;8.53;;;9.60;99.90;;;;;;5010036;28;20541;-67
2023/10/01 04:50:46;;;;;;;19.00;8.40;;;9.60;99.90;;;;;;5009733;28;21017;-68
2023/10/01 04:53:14;;;;;;;17.87;9.10;;;9.60;99.90;;;;;;5009926;28;20460;-68
2023/10/01 04:55:43;;;;;;;17.90;9.20;;;9.50;99.90;;;;;;5010024;28;20456;-69
2023/10/01 04:58:14;;;;;;;18.53;8.90;;;9.50;99.90;;;;;;5009302;28;20471;-68
2023/10/01 05:00:45;;;;;;;17.73;8.83;;;9.40;99.90;;;;;;5007933;28;20535;-67
2023/10/01 05:03:15;;;;;;;18.60;8.40;;;9.50;99.90;;;;;;5009670;28;20559;-67
2023/10/01 05:05:44;;;;;;;19.17;8.80;;;9.60;99.90;;;;;;5009923;28;20463;-67
2023/10/01 05:08:13;;;;;;;18.87;9.20;;;9.50;99.90;;;;;;5009628;28;20469;-68
2023/10/01 05:10:56;;;;;;;19.20;8.77;;;9.50;99.90;;;;;;5009702;28;20519;-68
2023/10/01 05:13:28;;;;;;;19.00;10.03;;;9.50;99.90;;;;;;5010124;28;20455;-68
2023/10/01 05:15:56;;;;;;;21.70;9.70;;;9.40;99.90;;;;;;5009968;28;20552;-68
2023/10/01 05:18:27;;;;;;;17.57;9.27;;;9.40;99.90;;;;;;5009415;28;20835;-68
2023/10/01 05:20:58;;;;;;;17.73;8.90;;;9.30;99.90;;;;;;5008531;28;20892;-68
2023/10/01 05:23:27;;;;;;;17.50;8.57;;;9.40;99.90;;;;;;5008693;28;20484;-68
2023/10/01 05:25:56;;;;;;;19.77;9.73;;;9.50;99.90;;;;;;5005918;28;20492;-66
2023/10/01 05:28:34;;;;;;;20.57;10.30;;;9.60;99.90;;;;;;5007991;28;20548;-68
2023/10/01 05:31:06;;;;;;;20.80;10.50;;;9.70;99.90;;;;;;5005962;28;20534;-68
2023/10/01 05:33:34;;;;;;;17.53;9.40;;;9.70;99.90;;;;;;5003848;28;20446;-68
2023/10/01 05:36:05;;;;;;;19.87;9.47;;;9.60;99.90;;;;;;5009014;28;20537;-68
2023/10/01 05:38:34;;;;;;;18.37;9.33;;;9.60;99.90;;;;;;5008867;28;20460;-68
2023/10/01 05:41:04;;;;;;;20.13;9.40;;;9.50;99.90;;;;;;5008113;28;20488;-68
2023/10/01 05:43:37;;;;;;;21.70;9.90;;;9.50;99.90;;;;;;5008411;28;20493;-68
2023/10/01 05:46:08;;;;;;;20.27;9.83;;;9.50;99.90;;;;;;5009155;28;20991;-68
2023/10/01 05:48:37;;;;;;;20.13;10.63;;;9.40;99.90;;;;;;5008396;28;20464;-69
2023/10/01 05:51:06;;;;;;;20.27;8.40;;;9.40;99.90;;;;;;5008217;28;20516;-67
2023/10/01 05:53:36;;;;;;;21.17;9.33;;;9.50;99.90;;;;;;5008845;28;20477;-68
2023/10/01 05:56:07;;;;;;;17.73;8.70;;;9.50;99.90;;;;;;5008900;28;20975;-68
2023/10/01 05:58:37;;;;;;;17.73;8.67;;;9.60;99.90;;;;;;5008319;28;20454;-68
2023/10/01 06:01:13;;;;;;;20.20;9.23;;;9.80;99.90;;;;;;5008122;28;20482;-68
2023/10/01 06:03:43;;;;;;;18.40;9.80;;;10.00;99.90;;;;;;5008559;28;20576;-68
2023/10/01 06:06:14;;;;;;;17.10;8.90;;;10.20;99.90;;;;;;5008462;28;20539;-68
2023/10/01 06:08:46;;;;;;;19.53;8.03;;;10.30;99.90;;;;;;5007076;28;20458;-68
2023/10/01 06:11:16;;;;;;;17.37;9.23;;;10.40;99.90;;;;;;5008214;28;21222;-68
2023/10/01 06:13:51;;;;;;;18.23;8.40;;;10.30;99.90;;;;;;5008670;28;20454;-67
2023/10/01 06:16:23;;;;;;;19.10;9.33;;;10.30;99.90;;;;;;5008226;28;20454;-69
2023/10/01 06:18:56;;;;;;;20.30;9.33;;;10.40;99.90;;;;;;5009047;28;20553;-70
2023/10/01 06:21:26;;;;;;;17.43;9.80;;;10.40;99.90;;;;;;5009137;28;20896;-69
2023/10/01 06:23:58;;;;;;;21.10;8.60;;;10.40;99.90;;;;;;5008359;28;20517;-68
2023/10/01 06:26:33;;;;;;;19.60;9.23;;;10.40;99.90;;;;;;5008393;28;20459;-68
2023/10/01 06:29:03;;;;;;;20.73;9.80;;;10.30;99.90;;;;;;5007382;28;20845;-69
2023/10/01 06:31:47;;;;;;;17.97;9.70;;;10.30;99.90;;;;;;5005581;28;20544;-69
2023/10/01 06:34:19;;;;;;;18.50;9.53;;;10.20;99.90;;;;;;5007563;28;20454;-68
2023/10/01 06:36:50;;;;;;;24.57;10.53;;;10.30;99.90;;;;;;5008027;28;20487;-69
2023/10/01 06:39:20;;;;;;;21.47;9.93;;;10.30;99.90;;;;;;5008235;28;20451;-68
2023/10/01 06:41:49;;;;;;;21.80;9.30;;;10.30;99.90;;;;;;5008123;28;20472;-68
2023/10/01 06:44:19;;;;;;;19.07;9.50;;;10.40;99.90;;;;;;5007441;28;21029;-69
2023/10/01 06:46:48;;;;;;;23.47;10.73;;;10.50;99.90;;;;;;5007858;28;20516;-69
2023/10/01 06:49:18;;;;;;;22.50;10.57;;;10.60;99.90;;;;;;5007437;28;20546;-69
2023/10/01 06:51:46;;;;;;;18.97;9.87;;;10.60;99.90;;;;;;5008027;28;20479;-69
2023/10/01 06:54:18;;;;;;;18.97;8.47;;;10.70;99.90;;;;;;5007681;28;20446;-69
2023/10/01 06:56:47;;;;;;;19.53;10.17;;;10.90;99.90;;;;;;5007081;28;20464;-68
2023/10/01 06:59:17;;;;;;;21.73;10.43;;;11.10;99.90;;;;;;5007128;28;20553;-68
2023/10/01 07:01:56;;;;;;;17.63;9.70;;;11.20;99.90;;;;;;5007101;28;20509;-69
2023/10/01 07:04:25;;;;;;;18.73;8.67;;;11.40;99.90;;;;;;5007793;28;21197;-68
2023/10/01 07:06:53;;;;;;;18.53;9.40;;;11.40;99.90;;;;;;5008484;28;20564;-69
2023/10/01 07:09:27;;;;;;;19.87;9.97;;;11.50;99.90;;;;;;5007803;28;20464;-69
2023/10/01 07:11:59;;;;;;;18.50;8.83;;;11.60;99.90;;;;;;5007246;28;20567;-68
2023/10/01 07:14:38;;;;;;;20.80;10.50;;;11.70;99.90;;;;;;5007969;28;20540;-69
2023/10/01 07:17:09;;;;;;;20.27;10.27;;;11.90;99.90;;;;;;5008218;28;20468;-69
2023/10/01 07:19:38;;;;;;;18.17;8.87;;;11.90;99.90;;;;;;5007846;28;20460;-69
2023/10/01 07:22:07;;;;;;;17.77;10.20;;;12.00;99.90;;;;;;5006418;28;20570;-68
2023/10/01 07:24:35;;;;;;;17.90;8.87;;;12.10;99.90;;;;;;5003205;28;20857;-70
2023/10/01 07:27:06;;;;;;;16.47;8.30;;;12.20;99.90;;;;;;5004893;28;20481;-69
2023/10/01 07:29:39;;;;;;;20.43;10.47;;;12.30;99.90;;;;;;5005761;28;20446;-68
2023/10/01 07:32:12;;;;;;;16.83;9.53;;;12.40;99.90;;;;;;5006971;28;20528;-69
2023/10/01 07:34:42;;;;;;;19.83;10.63;;;12.60;99.90;;;;;;5007323;28;20988;-69
2023/10/01 07:37:23;;;;;;;19.30;9.07;;;12.60;99.90;;;;;;5004937;28;20446;-68
2023/10/01 07:39:55;;;;;;;18.03;9.57;;;12.70;99.90;;;;;;5007527;28;20860;-68
2023/10/01 07:42:25;;;;;;;18.83;8.87;;;12.80;99.90;;;;;;5007256;28;20469;-68
2023/10/01 07:44:54;;;;;;;17.13;8.80;;;12.90;99.90;;;;;;5006823;28;20490;-68
2023/10/01 07:47:31;;;;;;;16.23;8.70;;;13.00;99.90;;;;;;5007185;28;20465;-69
2023/10/01 07:50:02;;;;;;;19.80;9.77;;;13.10;99.90;;;;;;5007188;28;20459;-69
2023/10/01 07:52:32;;;;;;;19.73;10.00;;;13.30;99.90;;;;;;5007237;28;20513;-69
2023/10/01 07:55:26;;;;;;;19.70;8.40;;;13.40;99.90;;;;;;5006913;28;20456;-69
2023/10/01 07:57:48;;;;;;;17.80;9.07;;;13.50;99.90;;;;;;5005822;28;20464;-67
2023/10/01 08:00:26;;;;;;;18.73;9.60;;;13.60;99.90;;;;;;5006912;28;20471;-68
2023/10/01 08:05:49;;;;;;;15.23;8.30;;;13.90;99.90;;;;;;4988889;28;20254;-67
2023/10/01 08:08:35;;;;;;;17.97;9.90;;;14.00;99.90;;;;;;5007002;28;20485;-67
2023/10/01 08:11:07;;;;;;;13.90;7.40;;;14.10;99.90;;;;;;5007176;28;20466;-67
2023/10/01 08:13:35;;;;;;;16.30;8.17;;;14.40;99.90;;;;;;5008744;28;20455;-68
2023/10/01 08:16:03;;;;;;;18.00;8.30;;;14.50;99.90;;;;;;5010683;28;20494;-67
2023/10/01 08:18:39;;;;;;;16.90;8.33;;;14.70;99.90;;;;;;5009671;28;20449;-68
2023/10/01 08:21:15;;;;;;;15.67;7.90;;;14.80;99.90;;;;;;5009061;28;21004;-67
2023/10/01 08:23:48;;;;;;;17.90;9.00;;;14.90;99.90;;;;;;5008703;28;20480;-67
2023/10/01 08:29:03;;;;;;;14.97;8.30;;;15.20;99.90;;;;;;5010189;28;20545;-67
2023/10/01 08:32:07;;;;;;;16.20;7.27;;;15.40;99.90;;;;;;5011011;28;20477;-67
2023/10/01 08:35:01;;;;;;;17.07;7.20;;;15.60;99.90;;;;;;5009818;28;20968;-67
2023/10/01 08:37:22;;;;;;;20.70;8.60;;;15.90;99.90;;;;;;5009718;28;20454;-67
2023/10/01 08:39:54;;;;;;;17.77;9.83;;;16.20;99.90;;;;;;5011116;28;20802;-66
2023/10/01 08:42:28;;;;;;;17.60;7.90;;;16.40;99.90;;;;;;5010059;28;20472;-67
2023/10/01 08:45:03;;;;;;;17.87;7.67;;;16.60;99.90;;;;;;5010882;28;20477;-67
2023/10/01 08:47:34;;;;;;;15.50;7.90;;;16.80;99.90;;;;;;5010411;28;21039;-66
2023/10/01 08:50:26;;;;;;;17.97;7.90;;;17.00;99.90;;;;;;5010723;28;20453;-68
2023/10/01 08:52:56;;;;;;;17.10;8.70;;;17.20;99.90;;;;;;5010253;28;20453;-67
2023/10/01 08:55:35;;;;;;;15.07;6.60;;;17.60;99.90;;;;;;5009954;28;20473;-67
2023/10/01 08:58:14;;;;;;;15.97;6.97;;;17.90;99.90;;;;;;5009411;28;20557;-68
2023/10/01 09:00:49;;;;;;;18.33;8.00;;;18.20;99.90;;;;;;5010351;28;20515;-66
2023/10/01 09:03:28;;;;;;;14.67;6.50;;;18.40;99.90;;;;;;5010157;28;20477;-67
2023/10/01 09:06:04;;;;;;;17.10;7.70;;;18.60;99.90;;;;;;5005509;28;20473;-67
2023/10/01 09:08:42;;;;;;;16.17;7.67;;;18.70;99.90;;;;;;5005574;28;20540;-67
2023/10/01 09:11:12;;;;;;;17.77;7.27;;;19.00;99.90;;;;;;5008134;28;20480;-67
2023/10/01 09:13:47;;;;;;;18.50;7.57;;;19.20;99.90;;;;;;5005105;28;20445;-67
2023/10/01 09:16:16;;;;;;;18.17;7.50;;;19.40;99.90;;;;;;5007361;28;21027;-67
2023/10/01 09:19:03;;;;;;;15.27;7.67;;;19.60;99.90;;;;;;5009269;28;20457;-67
2023/10/01 09:21:38;;;;;;;14.20;7.00;;;19.70;99.90;;;;;;5009571;28;20469;-67
2023/10/01 09:24:31;;;;;;;17.37;8.10;;;19.80;99.90;;;;;;5009326;28;20453;-66
2023/10/01 09:27:08;;;;;;;15.33;7.10;;;19.90;99.90;;;;;;5008815;28;20456;-68
2023/10/01 09:29:43;;;;;;;16.50;7.20;;;20.20;99.90;;;;;;5004227;28;20648;-67
2023/10/01 09:32:13;;;;;;;17.17;7.40;;;20.50;99.90;;;;;;5006267;28;21043;-68
2023/10/01 09:34:53;;;;;;;13.87;7.20;;;20.50;99.90;;;;;;5009630;28;20489;-67
2023/10/01 09:37:33;;;;;;;14.00;7.23;;;20.50;99.90;;;;;;5008444;28;20450;-66
2023/10/01 09:40:13;;;;;;;15.00;6.47;;;20.70;99.90;;;;;;5008466;28;20967;-68
2023/10/01 09:42:45;;;;;;;12.77;6.63;;;21.10;99.90;;;;;;5009153;28;20511;-66
2023/10/01 09:45:26;;;;;;;12.33;6.33;;;21.30;99.90;;;;;;5009333;28;20477;-66
2023/10/01 09:48:04;;;;;;;12.20;6.20;;;21.60;99.90;;;;;;5008139;28;21209;-68
2023/10/01 09:50:41;;;;;;;17.00;7.17;;;22.00;99.90;;;;;;5008444;28;20500;-66
2023/10/01 09:53:14;;;;;;;15.27;6.70;;;22.30;99.90;;;;;;5007979;28;20965;-66
2023/10/01 09:55:48;;;;;;;13.33;6.00;;;22.70;99.90;;;;;;5008445;28;20457;-67
2023/10/01 09:58:20;;;;;;;14.43;7.20;;;22.90;99.90;;;;;;5005649;28;20457;-67
2023/10/01 10:00:50;;;;;;;14.63;7.43;;;23.20;99.90;;;;;;5002647;28;20473;-67
2023/10/01 10:03:19;;;;;;;16.50;6.87;;;23.50;99.90;;;;;;5008134;28;20508;-67
2023/10/01 10:05:47;;;;;;;14.30;6.93;;;23.80;99.30;;;;;;5006200;28;20569;-67
2023/10/01 10:08:20;;;;;;;14.50;6.93;;;23.90;97.90;;;;;;5008613;28;20460;-67
2023/10/01 10:10:50;;;;;;;14.27;7.07;;;24.10;98.70;;;;;;5005303;28;20477;-67
2023/10/01 10:13:38;;;;;;;15.50;7.17;;;24.30;97.10;;;;;;5008855;28;20524;-66
2023/10/01 10:19:12;;;;;;;14.10;6.20;;;25.00;95.00;;;;;;5007446;28;20485;-67
2023/10/01 10:22:12;;;;;;;13.07;6.30;;;25.30;92.00;;;;;;5008624;28;20473;-67
2023/10/01 10:24:46;;;;;;;12.47;5.90;;;25.60;92.40;;;;;;5007950;28;20480;-67
2023/10/01 10:27:47;;;;;;;14.00;6.73;;;25.90;90.70;;;;;;5008636;28;20457;-67
2023/10/01 10:30:21;;;;;;;13.40;6.60;;;26.20;87.00;;;;;;5006847;28;20477;-68
2023/10/01 10:33:29;;;;;;;12.43;5.60;;;26.50;83.70;;;;;;5007978;28;20512;-67
2023/10/01 10:36:51;;;;;;;12.90;6.00;;;27.10;78.80;;;;;;5002886;28;21014;-67
2023/10/01 10:40:26;;;;;;;13.43;6.67;;;27.60;71.70;;;;;;5007409;28;20461;-67
2023/10/01 10:43:19;;;;;;;12.90;6.30;;;27.80;70.10;;;;;;5007661;28;20449;-68
2023/10/01 10:46:06;;;;;;;13.30;5.80;;;27.70;66.70;;;;;;5007779;28;20565;-67
2023/10/01 10:49:02;;;;;;;14.07;6.10;;;27.30;69.90;;;;;;5007658;28;20457;-67
2023/10/01 10:51:46;;;;;;;16.23;6.30;;;27.40;66.00;;;;;;5007728;28;20470;-67
2023/10/01 10:54:27;;;;;;;13.33;6.30;;;27.90;63.30;;;;;;5007654;28;20453;-67
2023/10/01 10:56:57;;;;;;;15.70;6.40;;;28.50;61.60;;;;;;5002302;28;20450;-68
2023/10/01 10:59:29;;;;;;;13.07;5.87;;;28.80;59.80;;;;;;5006011;28;20481;-68
2023/10/01 11:01:58;;;;;;;14.10;6.33;;;29.10;58.60;;;;;;5006687;28;20508;-67
2023/10/01 11:04:32;;;;;;;15.40;7.33;;;29.10;59.10;;;;;;5008116;28;20450;-67
2023/10/01 11:07:02;;;;;;;13.10;6.40;;;29.10;57.80;;;;;;5006538;28;20487;-67
2023/10/01 11:09:32;;;;;;;15.80;7.27;;;29.10;58.10;;;;;;5007539;28;20544;-67
2023/10/01 11:12:19;;;;;;;16.23;6.73;;;29.10;55.60;;;;;;5007338;28;20565;-66
2023/10/01 11:15:19;;;;;;;15.50;6.80;;;28.90;55.40;;;;;;5004057;28;20464;-67
2023/10/01 11:17:48;;;;;;;15.70;7.77;;;28.60;56.20;;;;;;5006802;28;20452;-67
2023/10/01 11:20:23;;;;;;;13.90;6.40;;;28.30;57.00;;;;;;5007656;28;20457;-67
2023/10/01 11:22:54;;;;;;;16.87;8.13;;;28.40;56.30;;;;;;5007240;28;21038;-67
2023/10/01 11:25:22;;;;;;;14.27;7.07;;;28.60;57.80;;;;;;5007420;28;20453;-66
2023/10/01 11:28:04;;;;;;;17.83;7.40;;;29.30;56.60;;;;;;5006866;28;20454;-68
2023/10/01 11:30:42;;;;;;;13.73;6.47;;;29.80;57.20;;;;;;5007778;28;20847;-67
2023/10/01 11:33:14;;;;;;;14.47;7.00;;;30.50;56.20;;;;;;5005364;28;20520;-68
2023/10/01 11:36:06;;;;;;;14.53;7.30;;;30.70;51.20;;;;;;5006895;28;20453;-68
2023/10/01 11:38:37;;;;;;;17.60;7.00;;;30.40;52.20;;;;;;5006404;28;20473;-67
2023/10/01 11:41:09;;;;;;;14.77;6.50;;;30.60;51.70;;;;;;5004194;28;20483;-68
2023/10/01 11:43:43;;;;;;;16.90;7.90;;;30.60;52.10;;;;;;5003323;28;20992;-68
2023/10/01 11:46:20;;;;;;;18.23;7.40;;;30.90;50.80;;;;;;5007077;28;21009;-68
2023/10/01 11:48:59;;;;;;;14.10;6.80;;;31.30;51.90;;;;;;5008080;28;21245;-68
2023/10/01 11:51:30;;;;;;;15.77;7.60;;;31.80;49.30;;;;;;5010695;28;20473;-68
2023/10/01 11:54:07;;;;;;;15.10;6.60;;;32.20;48.20;;;;;;5011561;28;20449;-67
2023/10/01 11:56:37;;;;;;;16.20;8.27;;;30.70;49.00;;;;;;5010486;28;20515;-68
2023/10/01 11:59:08;;;;;;;17.87;7.07;;;29.60;50.80;;;;;;5011211;28;20484;-67
2023/10/01 12:01:47;;;;;;;14.40;6.63;;;29.60;51.70;;;;;;5010973;28;21073;-68
2023/10/01 12:04:24;;;;;;;16.27;7.37;;;29.70;53.30;;;;;;5010923;28;20446;-68
2023/10/01 12:06:55;;;;;;;14.10;6.60;;;30.20;50.30;;;;;;5010966;28;20485;-68
2023/10/01 12:09:24;;;;;;;15.10;7.67;;;31.10;49.70;;;;;;5010862;28;20548;-68
2023/10/01 12:12:05;;;;;;;14.40;7.07;;;31.30;48.00;;;;;;5010494;28;20509;-68
2023/10/01 12:14:52;;;;;;;17.13;8.60;;;31.80;48.30;;;;;;5010750;28;21336;-68
2023/10/01 12:17:24;;;;;;;15.60;7.00;;;32.10;47.50;;;;;;5010585;28;20584;-68
2023/10/01 12:19:57;;;;;;;16.97;7.87;;;32.90;48.00;;;;;;5010017;28;20552;-68
2023/10/01 12:22:25;;;;;;;15.37;7.60;;;33.00;47.10;;;;;;5008410;28;20592;-67
2023/10/01 12:24:57;;;;;;;16.33;7.03;;;33.40;44.70;;;;;;5010896;28;20453;-68
2023/10/01 12:30:31;;;;;;;15.07;7.33;;;33.10;46.30;;;;;;4999552;28;20450;-68
2023/10/01 12:33:03;;;;;;;16.77;8.07;;;34.20;45.50;;;;;;5010619;28;20453;-68
2023/10/01 12:35:35;;;;;;;14.83;7.60;;;35.10;45.30;;;;;;5010347;28;20494;-68
2023/10/01 12:40:55;;;;;;;15.27;7.30;;;35.00;43.20;;;;;;5009792;28;20900;-68
2023/10/01 12:43:36;;;;;;;15.30;7.87;;;35.10;44.30;;;;;;5010494;28;20465;-67
2023/10/01 12:46:13;;;;;;;16.30;7.43;;;35.40;44.30;;;;;;5010260;28;20862;-67
2023/10/01 12:51:34;;;;;;;13.60;7.30;;;36.50;41.40;;;;;;5009644;28;20524;-68
2023/10/01 12:54:06;;;;;;;14.73;7.10;;;36.80;41.50;;;;;;5008492;28;20836;-68
2023/10/01 12:56:48;;;;;;;15.23;7.87;;;37.10;40.30;;;;;;5009755;28;20453;-68
2023/10/01 12:59:19;;;;;;;13.70;7.77;;;36.10;38.80;;;;;;5008344;28;20449;-68
2023/10/01 13:01:51;;;;;;;15.77;8.00;;;35.60;40.40;;;;;;5007220;28;20474;-67
2023/10/01 13:04:25;;;;;;;14.93;7.27;;;35.60;40.60;;;;;;5010090;28;21003;-66
2023/10/01 13:07:01;;;;;;;15.03;8.77;;;35.80;38.80;;;;;;5009430;28;20515;-68
2023/10/01 13:09:53;;;;;;;13.73;7.13;;;35.60;40.00;;;;;;5010008;28;20481;-68
2023/10/01 13:12:25;;;;;;;15.60;8.93;;;33.70;40.60;;;;;;5010035;28;20635;-68
2023/10/01 13:17:43;;;;;;;15.07;7.10;;;30.40;47.70;;;;;;5009180;28;20987;-65
2023/10/01 13:20:22;;;;;;;14.07;6.60;;;29.40;50.50;;;;;;5009547;28;20457;-67
2023/10/01 13:22:52;;;;;;;14.63;7.63;;;28.60;50.30;;;;;;5008938;28;20450;-68
2023/10/01 13:25:23;;;;;;;14.23;6.57;;;27.80;52.00;;;;;;5009071;28;20458;-67
2023/10/01 13:28:01;;;;;;;14.27;6.67;;;27.30;51.70;;;;;;5009306;28;20496;-67
2023/10/01 13:30:31;;;;;;;14.07;7.50;;;26.80;52.60;;;;;;5009530;28;20925;-67
2023/10/01 13:33:13;;;;;;;14.33;6.77;;;26.60;53.20;;;;;;5009566;28;20553;-68
2023/10/01 13:35:56;;;;;;;14.70;6.87;;;26.40;53.90;;;;;;5001551;28;20837;-67